Time;durP1;ratioP1;P1;durP2;ratioP2;P2;SDS_P1;SDS_P2;PMS_P1;PMS_P2;Temp;Humidity;BMP_temperature;BMP_pressure;BME280_temperature;BME280_humidity;BME280_pressure;Samples;Min_cycle;Max_cycle;Signal;HPM_P1;HPM_P2
2022/09/21 00:00:08;;;;;;;;;;;;;;;10.51;100.00;98603.53;1694731;83;25281;-91
2022/09/21 00:02:36;;;;;;;;;;;;;;;10.48;100.00;98598.85;1696621;83;20285;-85
2022/09/21 00:05:02;;;;;;;;;;;;;;;10.47;100.00;98605.52;1698035;83;26168;-86
2022/09/21 00:07:33;;;;;;;;;;;;;;;10.44;100.00;98603.93;1697413;83;25300;-86
2022/09/21 00:10:00;;;;;;;;;;;;;;;10.44;100.00;98601.78;1701327;83;20198;-85
2022/09/21 00:12:25;;;;;;;;;;;;;;;10.44;100.00;98604.40;1709844;82;25229;-86
2022/09/21 00:14:51;;;;;;;;;;;;;;;10.43;100.00;98604.86;1711768;82;20251;-86
2022/09/21 00:17:20;;;;;;;;;;;;;;;10.43;100.00;98602.72;1718963;82;25946;-89
2022/09/21 00:19:46;;;;;;;;;;;;;;;10.42;100.00;98597.95;1713740;82;24613;-89
2022/09/21 00:22:13;;;;;;;;;;;;;;;10.42;100.00;98601.88;1713173;82;20530;-88
2022/09/21 00:24:39;;;;;;;;;;;;;;;10.39;100.00;98601.25;1712897;82;25186;-89
2022/09/21 00:27:04;;;;;;;;;;;;;;;10.38;100.00;98600.41;1713590;82;20317;-88
2022/09/21 00:29:37;;;;;;;;;;;;;;;10.37;100.00;98603.95;1708803;83;20928;-90
2022/09/21 00:32:03;;;;;;;;;;;;;;;10.38;100.00;98606.95;1714004;81;24493;-90
2022/09/21 00:34:38;;;;;;;;;;;;;;;10.40;100.00;98605.08;1710453;82;20220;-90
2022/09/21 00:37:04;;;;;;;;;;;;;;;10.39;100.00;98606.48;1715132;83;24981;-88
2022/09/21 00:39:37;;;;;;;;;;;;;;;10.39;100.00;98607.80;1708993;82;20898;-89
2022/09/21 00:42:05;;;;;;;;;;;;;;;10.38;100.00;98606.95;1711142;82;26033;-89
2022/09/21 00:44:32;;;;;;;;;;;;;;;10.39;100.00;98604.70;1715335;82;25177;-89
2022/09/21 00:47:00;;;;;;;;;;;;;;;10.43;100.00;98605.33;1714260;83;20531;-89
2022/09/21 00:49:27;;;;;;;;;;;;;;;10.42;100.00;98603.19;1719609;82;24950;-87
2022/09/21 00:51:56;;;;;;;;;;;;;;;10.42;100.00;98603.19;1713344;81;22038;-89
2022/09/21 00:54:29;;;;;;;;;;;;;;;10.44;100.00;98606.55;1713683;82;26045;-89
2022/09/21 00:56:53;;;;;;;;;;;;;;;10.38;100.00;98596.95;1716150;82;24276;-88
2022/09/21 00:59:22;;;;;;;;;;;;;;;10.43;100.00;98606.64;1718149;82;20218;-89
2022/09/21 01:01:48;;;;;;;;;;;;;;;10.37;100.00;98596.11;1710957;82;25013;-88
2022/09/21 01:04:17;;;;;;;;;;;;;;;10.44;100.00;98610.47;1715952;82;21455;-88
2022/09/21 01:06:42;;;;;;;;;;;;;;;10.43;100.00;98605.33;1715977;82;25780;-89
2022/09/21 01:09:13;;;;;;;;;;;;;;;10.44;100.00;98611.78;1714453;83;20291;-88
2022/09/21 01:11:46;;;;;;;;;;;;;;;10.43;100.00;98617.11;1703679;82;32685;-89
2022/09/21 01:14:32;;;;;;;;;;;;;;;10.44;100.00;98615.70;1631003;84;22106;-89
2022/09/21 01:17:06;;;;;;;;;;;;;;;10.44;100.00;98615.70;1711063;82;21912;-88
2022/09/21 01:19:52;;;;;;;;;;;;;;;10.47;100.00;98614.17;1706851;82;26271;-89
2022/09/21 01:22:37;;;;;;;;;;;;;;;10.48;100.00;98616.33;1716495;82;24428;-85
2022/09/21 01:25:08;;;;;;;;;;;;;;;10.44;100.00;98615.70;1705095;82;20230;-85
2022/09/21 01:27:36;;;;;;;;;;;;;;;10.42;100.00;98615.42;1700181;82;25005;-85
2022/09/21 01:30:10;;;;;;;;;;;;;;;10.42;100.00;98611.03;1707293;82;22066;-85
2022/09/21 01:32:41;;;;;;;;;;;;;;;10.43;100.00;98617.95;1705155;83;26084;-85
2022/09/21 01:35:11;;;;;;;;;;;;;;;10.45;100.00;98620.47;1703097;82;24417;-91
2022/09/21 01:37:44;;;;;;;;;;;;;;;10.45;100.00;98620.00;1703723;83;20243;-90
2022/09/21 01:40:14;;;;;;;;;;;;;;;10.46;100.00;98620.38;1707986;83;25024;-90
2022/09/21 01:42:41;;;;;;;;;;;;;;;10.43;100.00;98623.18;1708082;83;21989;-91
2022/09/21 01:45:09;;;;;;;;;;;;;;;10.47;100.00;98629.06;1709678;82;26115;-89
2022/09/21 01:47:38;;;;;;;;;;;;;;;10.46;100.00;98625.61;1715754;82;24533;-89
2022/09/21 01:50:06;;;;;;;;;;;;;;;10.51;100.00;98622.69;1708228;82;20312;-89
2022/09/21 01:52:45;;;;;;;;;;;;;;;10.46;100.00;98616.92;1705822;82;25078;-89
2022/09/21 01:55:16;;;;;;;;;;;;;;;10.46;100.00;98621.69;1710354;82;22126;-89
2022/09/21 01:57:44;;;;;;;;;;;;;;;10.42;100.00;98621.50;1704677;83;26045;-89
2022/09/21 02:00:14;;;;;;;;;;;;;;;10.45;100.00;98623.92;1695651;83;20506;-85
2022/09/21 02:02:42;;;;;;;;;;;;;;;10.48;100.00;98623.70;1710592;83;20708;-85
2022/09/21 02:05:09;;;;;;;;;;;;;;;10.45;100.00;98625.23;1690466;83;25225;-85
2022/09/21 02:07:38;;;;;;;;;;;;;;;10.46;100.00;98626.92;1701916;82;22754;-86
2022/09/21 02:10:10;;;;;;;;;;;;;;;10.51;100.00;98625.30;1721193;82;26082;-85
2022/09/21 02:12:37;;;;;;;;;;;;;;;10.46;100.00;98625.61;1703238;82;24629;-85
2022/09/21 02:15:03;;;;;;;;;;;;;;;10.47;100.00;98631.19;1728033;82;20479;-85
2022/09/21 02:17:41;;;;;;;;;;;;;;;10.47;100.00;98636.42;1731978;82;25058;-91
2022/09/21 02:20:21;;;;;;;;;;;;;;;10.46;100.00;98636.08;1735869;81;22102;-91
2022/09/21 02:23:15;;;;;;;;;;;;;;;10.44;100.00;98633.18;1714931;82;26065;-91
2022/09/21 02:25:46;;;;;;;;;;;;;;;10.33;100.00;98637.81;1728508;82;24396;-85
2022/09/21 02:28:30;;;;;;;;;;;;;;;10.26;100.00;98637.83;1729865;82;20285;-85
2022/09/21 02:31:01;;;;;;;;;;;;;;;10.26;100.00;98637.83;1728054;82;25020;-89
2022/09/21 02:33:31;;;;;;;;;;;;;;;10.27;100.00;98636.90;1668357;82;22078;-86
2022/09/21 02:36:00;;;;;;;;;;;;;;;10.27;100.00;98633.44;1730970;82;26002;-85
2022/09/21 02:38:38;;;;;;;;;;;;;;;10.20;100.00;98631.69;1729659;81;20156;-90
2022/09/21 02:41:24;;;;;;;;;;;;;;;10.21;100.00;98632.06;1689837;82;20204;-90
2022/09/21 02:44:01;;;;;;;;;;;;;;;10.21;100.00;98634.68;1692159;84;25321;-91
2022/09/21 02:46:35;;;;;;;;;;;;;;;10.20;100.00;98633.49;1720227;82;22079;-90
2022/09/21 02:49:15;;;;;;;;;;;;;;;10.17;100.00;98638.91;1730119;82;25985;-91
2022/09/21 02:51:43;;;;;;;;;;;;;;;10.17;100.00;98638.91;1727647;81;24896;-90
2022/09/21 02:54:16;;;;;;;;;;;;;;;10.17;100.00;98638.44;1721367;82;20322;-90
2022/09/21 02:56:45;;;;;;;;;;;;;;;10.11;100.00;98644.03;1730091;82;25726;-90
2022/09/21 02:59:12;;;;;;;;;;;;;;;10.13;100.00;98646.09;1731079;82;22034;-90
2022/09/21 03:01:39;;;;;;;;;;;;;;;10.19;100.00;98650.96;1717432;82;26000;-90
2022/09/21 03:04:09;;;;;;;;;;;;;;;10.18;100.00;98656.28;1721353;81;24582;-90
2022/09/21 03:06:41;;;;;;;;;;;;;;;10.23;100.00;98655.52;1691502;84;20279;-90
2022/09/21 03:09:07;;;;;;;;;;;;;;;10.26;100.00;98650.91;1695407;81;25118;-88
2022/09/21 03:11:34;;;;;;;;;;;;;;;10.32;100.00;98651.82;1712112;82;21834;-88
2022/09/21 03:14:07;;;;;;;;;;;;;;;10.36;100.00;98656.41;1687144;83;26615;-88
2022/09/21 03:16:38;;;;;;;;;;;;;;;10.42;100.00;98662.05;1704056;82;24198;-89
2022/09/21 03:19:15;;;;;;;;;;;;;;;10.38;100.00;98661.05;1716633;82;21045;-89
2022/09/21 03:21:41;;;;;;;;;;;;;;;10.38;100.00;98664.50;1712583;82;25132;-89
2022/09/21 03:24:07;;;;;;;;;;;;;;;10.42;100.00;98664.66;1708485;83;20244;-89
2022/09/21 03:26:34;;;;;;;;;;;;;;;10.48;100.00;98669.97;1714236;82;21003;-90
2022/09/21 03:29:02;;;;;;;;;;;;;;;10.50;100.00;98669.41;1688571;83;24345;-89
2022/09/21 03:31:30;;;;;;;;;;;;;;;10.52;100.00;98674.08;1702694;83;20223;-89
2022/09/21 03:33:57;;;;;;;;;;;;;;;10.53;100.00;98671.81;1708336;82;25235;-88
2022/09/21 03:36:23;;;;;;;;;;;;;;;10.54;100.00;98670.03;1707228;82;22089;-89
2022/09/21 03:38:55;;;;;;;;;;;;;;;10.62;100.00;98673.00;1714580;82;21215;-89
2022/09/21 03:41:22;;;;;;;;;;;;;;;10.63;100.00;98672.06;1703804;82;24105;-88
2022/09/21 03:43:47;;;;;;;;;;;;;;;10.68;100.00;98672.59;1709860;83;20189;-89
2022/09/21 03:46:15;;;;;;;;;;;;;;;10.67;100.00;98672.22;1711502;82;20301;-88
2022/09/21 03:48:46;;;;;;;;;;;;;;;10.63;100.00;98678.61;1712723;82;21937;-88
2022/09/21 03:51:09;;;;;;;;;;;;;;;10.61;100.00;98679.17;1712692;82;25564;-89
2022/09/21 03:53:41;;;;;;;;;;;;;;;10.55;100.00;98686.11;1716650;82;20866;-88
2022/09/21 03:56:09;;;;;;;;;;;;;;;10.54;100.00;98685.27;1712338;83;20270;-88
2022/09/21 03:58:35;;;;;;;;;;;;;;;10.55;100.00;98684.34;1710979;82;25005;-89
2022/09/21 04:01:02;;;;;;;;;;;;;;;10.57;100.00;98685.55;1709378;82;21939;-89
2022/09/21 04:03:29;;;;;;;;;;;;;;;10.56;100.00;98687.80;1706365;82;26753;-89
2022/09/21 04:05:55;;;;;;;;;;;;;;;10.58;100.00;98689.38;1708142;82;24357;-89
2022/09/21 04:08:21;;;;;;;;;;;;;;;10.52;100.00;98694.17;1699169;82;20274;-88
2022/09/21 04:10:48;;;;;;;;;;;;;;;10.52;100.00;98689.78;1685762;84;20241;-89
2022/09/21 04:13:14;;;;;;;;;;;;;;;10.53;100.00;98695.86;1682284;84;22211;-88
2022/09/21 04:15:40;;;;;;;;;;;;;;;10.52;100.00;98692.87;1686948;84;21113;-88
2022/09/21 04:18:12;;;;;;;;;;;;;;;10.42;100.00;98684.75;1687591;84;20832;-89
2022/09/21 04:20:38;;;;;;;;;;;;;;;10.44;100.00;98700.73;1684180;84;20242;-88
2022/09/21 04:23:04;;;;;;;;;;;;;;;10.45;100.00;98701.11;1685743;84;20331;-88
2022/09/21 04:25:31;;;;;;;;;;;;;;;10.48;100.00;98705.30;1724485;82;22042;-88
2022/09/21 04:27:59;;;;;;;;;;;;;;;10.46;100.00;98702.80;1703735;83;25434;-89
2022/09/21 04:30:36;;;;;;;;;;;;;;;10.42;100.00;98705.22;1685574;84;24425;-90
2022/09/21 04:33:02;;;;;;;;;;;;;;;10.42;100.00;98706.99;1689156;84;20285;-90
2022/09/21 04:35:30;;;;;;;;;;;;;;;10.44;100.00;98708.59;1683751;84;24497;-88
2022/09/21 04:37:56;;;;;;;;;;;;;;;10.46;100.00;98705.41;1684602;84;22037;-88
2022/09/21 04:40:32;;;;;;;;;;;;;;;10.48;100.00;98708.75;1684333;84;21135;-88
2022/09/21 04:42:59;;;;;;;;;;;;;;;10.49;100.00;98708.28;1683613;84;24598;-89
2022/09/21 04:45:25;;;;;;;;;;;;;;;10.54;100.00;98712.75;1684617;84;20218;-88
2022/09/21 04:47:51;;;;;;;;;;;;;;;10.57;100.00;98707.33;1677519;84;20296;-88
2022/09/21 04:50:18;;;;;;;;;;;;;;;10.55;100.00;98712.28;1684396;84;22449;-88
2022/09/21 04:52:45;;;;;;;;;;;;;;;10.51;100.00;98712.12;1686101;84;26616;-89
2022/09/21 04:55:16;;;;;;;;;;;;;;;10.47;100.00;98714.91;1689065;84;24644;-90
2022/09/21 04:57:43;;;;;;;;;;;;;;;10.43;100.00;98712.60;1687865;84;20254;-89
2022/09/21 05:00:12;;;;;;;;;;;;;;;10.42;100.00;98709.61;1696155;84;25071;-89
2022/09/21 05:02:43;;;;;;;;;;;;;;;10.34;100.00;98714.52;1679726;84;22663;-89
2022/09/21 05:05:09;;;;;;;;;;;;;;;10.29;100.00;98717.43;1721669;83;25817;-85
2022/09/21 05:07:34;;;;;;;;;;;;;;;10.30;100.00;98720.42;1704376;84;20361;-85
2022/09/21 05:10:07;;;;;;;;;;;;;;;10.30;100.00;98726.96;1701466;83;20367;-86
2022/09/21 05:12:33;;;;;;;;;;;;;;;10.34;100.00;98724.52;1709644;82;25076;-85
2022/09/21 05:15:00;;;;;;;;;;;;;;;10.35;100.00;98718.34;1706025;83;22085;-85
2022/09/21 05:17:32;;;;;;;;;;;;;;;10.31;100.00;98722.08;1704445;82;26018;-85
2022/09/21 05:20:01;;;;;;;;;;;;;;;10.26;100.00;98728.07;1722194;82;24687;-89
2022/09/21 05:22:27;;;;;;;;;;;;;;;10.21;100.00;98722.30;1702244;84;20582;-89
2022/09/21 05:24:55;;;;;;;;;;;;;;;10.20;100.00;98732.88;1734606;81;20243;-89
2022/09/21 05:27:21;;;;;;;;;;;;;;;10.24;100.00;98730.44;1702823;84;22250;-89
2022/09/21 05:29:47;;;;;;;;;;;;;;;10.29;100.00;98731.81;1689716;84;20955;-89
2022/09/21 05:32:33;;;;;;;;;;;;;;;10.35;100.00;98734.51;1733973;81;24524;-89
2022/09/21 05:35:07;;;;;;;;;;;;;;;10.32;100.00;98729.45;1725501;82;20453;-89
2022/09/21 05:37:38;;;;;;;;;;;;;;;10.37;100.00;98733.45;1728583;82;26083;-88
2022/09/21 05:40:05;;;;;;;;;;;;;;;10.37;100.00;98719.06;1730451;82;21919;-88
2022/09/21 05:42:33;;;;;;;;;;;;;;;10.52;100.00;98737.35;1731154;82;25991;-89
2022/09/21 05:44:59;;;;;;;;;;;;;;;10.53;100.00;98735.11;1736849;81;24507;-89
2022/09/21 05:47:45;;;;;;;;;;;;;;;10.53;100.00;98741.66;1729753;82;20262;-89
2022/09/21 05:50:30;;;;;;;;;;;;;;;10.55;100.00;98739.29;1718812;83;25019;-89
2022/09/21 05:52:57;;;;;;;;;;;;;;;10.60;100.00;98745.53;1706117;83;22045;-89
2022/09/21 05:55:25;;;;;;;;;;;;;;;10.60;100.00;98745.53;1726214;82;25935;-89
2022/09/21 05:57:56;;;;;;;;;;;;;;;10.56;100.00;98742.28;1703312;83;24400;-88
2022/09/21 06:00:22;;;;;;;;;;;;;;;10.56;100.00;98745.37;1717127;82;20164;-89
2022/09/21 06:02:58;;;;;;;;;;;;;;;10.56;100.00;98743.59;1723492;82;25765;-88
2022/09/21 06:05:31;;;;;;;;;;;;;;;10.58;100.00;98748.73;1716953;82;22728;-88
2022/09/21 06:07:57;;;;;;;;;;;;;;;10.57;100.00;98749.67;1736658;81;26120;-88
2022/09/21 06:10:23;;;;;;;;;;;;;;;10.57;100.00;98752.28;1733017;82;20238;-88
2022/09/21 06:12:53;;;;;;;;;;;;;;;10.42;100.00;98739.70;1720628;82;20305;-89
2022/09/21 06:15:21;;;;;;;;;;;;;;;10.46;100.00;98752.51;1719584;82;25011;-89
2022/09/21 06:17:47;;;;;;;;;;;;;;;10.52;100.00;98751.74;1735572;81;22044;-88
2022/09/21 06:20:13;;;;;;;;;;;;;;;10.57;100.00;98752.28;1735729;82;21159;-89
2022/09/21 06:22:39;;;;;;;;;;;;;;;10.62;100.00;98755.44;1704367;82;24512;-88
2022/09/21 06:25:06;;;;;;;;;;;;;;;10.60;100.00;98752.91;1720512;83;20510;-88
2022/09/21 06:27:34;;;;;;;;;;;;;;;10.60;100.00;98756.84;1719836;82;24950;-88
2022/09/21 06:30:00;;;;;;;;;;;;;;;10.62;100.00;98756.28;1735078;82;22156;-89
2022/09/21 06:32:26;;;;;;;;;;;;;;;10.67;100.00;98757.28;1733334;82;21058;-88
2022/09/21 06:34:52;;;;;;;;;;;;;;;10.69;100.00;98758.84;1734857;82;24615;-89
2022/09/21 06:37:18;;;;;;;;;;;;;;;10.69;100.00;98759.34;1734341;82;20331;-89
2022/09/21 06:39:44;;;;;;;;;;;;;;;10.72;100.00;98759.13;1733257;82;25048;-89
2022/09/21 06:42:12;;;;;;;;;;;;;;;10.69;100.00;98765.89;1736068;82;20227;-88
2022/09/21 06:44:40;;;;;;;;;;;;;;;10.68;100.00;98763.74;1698841;82;26744;-90
2022/09/21 06:47:05;;;;;;;;;;;;;;;10.70;100.00;98765.77;1735604;82;25420;-90
2022/09/21 06:49:31;;;;;;;;;;;;;;;10.68;100.00;98768.13;1735964;81;20227;-90
2022/09/21 06:52:01;;;;;;;;;;;;;;;10.71;100.00;98766.61;1735543;82;24975;-90
2022/09/21 06:54:30;;;;;;;;;;;;;;;10.74;100.00;98762.03;1709294;82;21962;-90
2022/09/21 06:56:56;;;;;;;;;;;;;;;10.78;100.00;98768.74;1734401;82;26191;-89
2022/09/21 06:59:27;;;;;;;;;;;;;;;10.81;100.00;98775.07;1731917;81;20919;-90
2022/09/21 07:02:06;;;;;;;;;;;;;;;10.83;100.00;98778.44;1735233;82;20196;-90
2022/09/21 07:04:34;;;;;;;;;;;;;;;10.82;100.00;98776.75;1735783;81;25040;-89
2022/09/21 07:07:00;;;;;;;;;;;;;;;10.75;100.00;98780.70;1735519;82;22001;-90
2022/09/21 07:09:26;;;;;;;;;;;;;;;10.69;100.00;98784.22;1735336;82;20961;-90
2022/09/21 07:11:54;;;;;;;;;;;;;;;10.67;100.00;98784.30;1735710;82;20246;-90
2022/09/21 07:14:21;;;;;;;;;;;;;;;10.69;100.00;98781.59;1735645;82;20215;-90
2022/09/21 07:16:51;;;;;;;;;;;;;;;10.78;100.00;98782.30;1735316;81;25054;-90
2022/09/21 07:19:19;;;;;;;;;;;;;;;10.81;100.00;98787.31;1735266;82;22218;-90
2022/09/21 07:21:46;;;;;;;;;;;;;;;10.80;100.00;98787.78;1735586;81;26178;-88
2022/09/21 07:24:16;;;;;;;;;;;;;;;10.75;100.00;98790.33;1735878;82;24368;-85
2022/09/21 07:26:42;;;;;;;;;;;;;;;10.68;100.00;98793.84;1732485;81;20256;-85
2022/09/21 07:29:10;;;;;;;;;;;;;;;10.62;100.00;98803.86;1735953;82;24908;-85
2022/09/21 07:31:36;;;;;;;;;;;;;;;10.60;100.00;98801.33;1734673;81;22127;-85
2022/09/21 07:34:02;;;;;;;;;;;;;;;10.60;100.00;98809.18;1733104;81;26024;-85
2022/09/21 07:36:28;;;;;;;;;;;;;;;10.66;100.00;98794.86;1734947;81;24501;-85
2022/09/21 07:38:54;;;;;;;;;;;;;;;10.73;100.00;98801.39;1735190;82;20343;-85
2022/09/21 07:41:20;;;;;;;;;;;;;;;10.75;100.00;98802.95;1735355;82;25884;-85
2022/09/21 07:43:46;;;;;;;;;;;;;;;10.81;100.00;98805.64;1734026;82;20790;-85
2022/09/21 07:46:13;;;;;;;;;;;;;;;10.91;100.00;98808.88;1735778;82;25929;-85
2022/09/21 07:48:39;;;;;;;;;;;;;;;10.93;100.00;98804.86;1735963;81;24691;-85
2022/09/21 07:51:07;;;;;;;;;;;;;;;10.95;100.00;98808.23;1734509;81;20494;-85
2022/09/21 07:53:36;;;;;;;;;;;;;;;10.93;100.00;98807.47;1735120;82;25049;-85
2022/09/21 07:56:04;;;;;;;;;;;;;;;10.91;100.00;98810.65;1733427;82;21984;-85
2022/09/21 08:01:14;;;;;;;;;;;;;;;10.93;100.00;98817.11;1733580;82;24481;-84
2022/09/21 08:03:40;;;;;;;;;;;;;;;10.88;100.00;98814.80;1735331;81;20266;-85
2022/09/21 08:06:09;;;;;;;;;;;;;;;10.94;100.00;98810.47;1735192;82;20266;-85
2022/09/21 08:08:34;;;;;;;;;;;;;;;11.01;100.00;98815.69;1732655;81;22015;-85
2022/09/21 08:11:05;;;;;;;;;;;;;;;11.03;100.00;98811.63;1707808;81;26009;-85
2022/09/21 08:13:31;;;;;;;;;;;;;;;11.07;100.00;98815.28;1697179;83;24536;-85
2022/09/21 08:16:01;;;;;;;;;;;;;;;11.14;100.00;98817.01;1689024;82;20345;-85
2022/09/21 08:18:27;;;;;;;;;;;;;;;11.21;100.00;98812.58;1698145;83;25668;-85
2022/09/21 08:20:54;;;;;;;;;;;;;;;11.26;100.00;98813.58;1691578;83;22028;-85
2022/09/21 08:23:20;;;;;;;;;;;;;;;11.32;100.00;98814.02;1694743;82;26024;-85
2022/09/21 08:25:52;;;;;;;;;;;;;;;11.40;100.00;98814.80;1708625;82;25176;-85
2022/09/21 08:28:18;;;;;;;;;;;;;;;11.46;100.00;98817.48;1716753;82;20376;-85
2022/09/21 08:30:43;;;;;;;;;;;;;;;11.53;100.00;98818.75;1683359;83;20777;-86
2022/09/21 08:33:09;;;;;;;;;;;;;;;11.56;100.00;98826.42;1682522;83;20299;-85
2022/09/21 08:35:35;;;;;;;;;;;;;;;11.57;100.00;98830.23;1669927;84;25992;-85
2022/09/21 08:38:02;;;;;;;;;;;;;;;11.53;100.00;98827.92;1679968;84;23942;-85
2022/09/21 08:40:28;;;;;;;;;;;;;;;11.58;100.00;98838.47;1673471;84;20876;-85
2022/09/21 08:43:02;;;;;;;;;;;;;;;11.61;100.00;98833.03;1689797;84;25083;-85
2022/09/21 08:45:30;;;;;;;;;;;;;;;11.65;100.00;98830.57;1691693;84;22788;-85
2022/09/21 08:47:58;;;;;;;;;;;;;;;11.72;100.00;98831.00;1717218;81;26023;-85
2022/09/21 08:50:26;;;;;;;;;;;;;;;11.76;100.00;98832.96;1717190;82;25379;-86
2022/09/21 08:52:53;;;;;;;;;;;;;;;11.74;100.00;98835.20;1682998;84;20144;-85
2022/09/21 08:55:20;;;;;;;;;;;;;;;11.77;100.00;98831.55;1685720;83;25604;-85
2022/09/21 08:57:46;;;;;;;;;;;;;;;11.87;100.00;98834.37;1690873;83;21963;-89
2022/09/21 09:00:13;;;;;;;;;;;;;;;11.87;100.00;98833.06;1691876;84;25917;-89
2022/09/21 09:05:29;;;;;;;;;;;;;;;11.82;100.00;98838.62;1708218;83;20277;-89
2022/09/21 09:08:13;;;;;;;;;;;;;;;11.76;100.00;98832.96;1702522;82;25085;-89
2022/09/21 09:10:53;;;;;;;;;;;;;;;11.81;100.00;98830.86;1705590;82;21928;-89
2022/09/21 09:13:21;;;;;;;;;;;;;;;11.90;100.00;98835.47;1698317;83;25998;-89
2022/09/21 09:15:55;;;;;;;;;;;;;;;11.92;100.00;98831.80;1700204;84;24678;-89
2022/09/21 09:18:32;;;;;;;;;;;;;;;11.96;100.00;98835.89;1699306;84;20219;-89
2022/09/21 09:20:59;;;;;;;;;;;;;;;11.96;100.00;98831.11;1699869;84;25209;-88
2022/09/21 09:23:27;;;;;;;;;;;;;;;12.04;100.00;98826.19;1697782;83;22549;-89
2022/09/21 09:25:55;;;;;;;;;;;;;;;12.21;100.00;98830.26;1700626;83;25984;-89
2022/09/21 09:28:26;;;;;;;;;;;;;;;12.27;100.00;98828.05;1699467;83;24434;-88
2022/09/21 09:30:53;;;;;;;;;;;;;;;12.35;100.00;98830.11;1698060;83;20216;-88
2022/09/21 09:33:25;;;;;;;;;;;;;;;12.39;100.00;98828.47;1700833;83;24863;-89
2022/09/21 09:35:59;;;;;;;;;;;;;;;12.35;100.00;98828.33;1693375;84;20175;-88
2022/09/21 09:38:30;;;;;;;;;;;;;;;12.29;100.00;98822.20;1700575;83;25994;-88
2022/09/21 09:41:15;;;;;;;;;;;;;;;12.23;100.00;98823.94;1700694;83;24536;-89
2022/09/21 09:43:59;;;;;;;;;;;;;;;12.21;100.00;98826.33;1700614;83;20187;-89
2022/09/21 09:46:30;;;;;;;;;;;;;;;12.30;100.00;98824.35;1699463;84;25035;-88
2022/09/21 09:48:58;;;;;;;;;;;;;;;12.42;100.00;98823.49;1700614;83;21762;-89
2022/09/21 09:51:28;;;;;;;;;;;;;;;12.52;100.00;98823.20;1701263;83;26029;-88
2022/09/21 09:53:53;;;;;;;;;;;;;;;12.52;100.00;98817.47;1696182;83;24510;-88
2022/09/21 09:56:20;;;;;;;;;;;;;;;12.55;100.00;98819.87;1700101;83;20425;-88
2022/09/21 09:58:48;;;;;;;;;;;;;;;12.62;100.00;98824.69;1700070;83;20801;-88
2022/09/21 10:01:33;;;;;;;;;;;;;;;12.68;100.00;98813.74;1696857;83;21956;-88
2022/09/21 10:04:00;;;;;;;;;;;;;;;12.73;100.00;98813.77;1699803;84;26110;-89
2022/09/21 10:06:32;;;;;;;;;;;;;;;12.80;100.00;98812.39;1693912;83;25196;-89
2022/09/21 10:08:58;;;;;;;;;;;;;;;12.94;100.00;98812.20;1699031;83;20255;-88
2022/09/21 10:11:26;;;;;;;;;;;;;;;12.93;100.00;98813.63;1710978;83;25010;-89
2022/09/21 10:13:52;;;;;;;;;;;;;;;12.97;100.00;98816.41;1715064;82;22647;-89
2022/09/21 10:16:20;;;;;;;;;;;;;;;13.00;100.00;98810.44;1719892;82;26022;-89
2022/09/21 10:18:48;;;;;;;;;;;;;;;13.10;100.00;98815.01;1727972;81;25251;-88
2022/09/21 10:21:25;;;;;;;;;;;;;;;13.18;100.00;98812.23;1721556;82;20262;-89
2022/09/21 10:23:52;;;;;;;;;;;;;;;13.31;100.00;98810.84;1728897;82;25050;-89
2022/09/21 10:26:20;;;;;;;;;;;;;;;13.35;100.00;98810.49;1718746;82;21960;-89
2022/09/21 10:28:57;;;;;;;;;;;;;;;13.45;100.00;98809.79;1711612;82;26877;-89
2022/09/21 10:31:24;;;;;;;;;;;;;;;13.48;100.00;98806.91;1705347;82;24405;-89
2022/09/21 10:33:52;;;;;;;;;;;;;;;13.43;100.00;98802.01;1705042;83;20514;-89
2022/09/21 10:36:22;;;;;;;;;;;;;;;13.38;100.00;98803.67;1692909;82;24985;-89
2022/09/21 10:38:49;;;;;;;;;;;;;;;13.37;100.00;98802.47;1693628;83;22097;-89
2022/09/21 10:41:21;;;;;;;;;;;;;;;13.37;100.00;98805.09;1693473;83;25975;-89
2022/09/21 10:43:49;;;;;;;;;;;;;;;13.19;100.00;98805.19;1676760;83;24507;-89
2022/09/21 10:46:15;;;;;;;;;;;;;;;13.17;100.00;98812.33;1692564;84;20225;-88
2022/09/21 10:48:43;;;;;;;;;;;;;;;13.25;100.00;98804.25;1689241;84;24948;-85
2022/09/21 10:51:11;;;;;;;;;;;;;;;13.31;100.00;98805.08;1730886;82;22072;-85
2022/09/21 10:53:37;;;;;;;;;;;;;;;13.28;100.00;98798.75;1730247;82;26336;-85
2022/09/21 10:56:05;;;;;;;;;;;;;;;13.36;100.00;98800.81;1722541;81;24570;-85
2022/09/21 10:58:35;;;;;;;;;;;;;;;13.54;100.00;98807.77;1719128;81;20273;-85
2022/09/21 11:01:11;;;;;;;;;;;;;;;13.66;100.00;98802.42;1730494;82;25060;-85
2022/09/21 11:03:42;;;;;;;;;;;;;;;13.78;100.00;98802.80;1724276;82;22817;-85
2022/09/21 11:06:13;;;;;;;;;;;;;;;13.89;100.00;98801.13;1702927;83;26629;-92
2022/09/21 11:09:02;;;;;;;;;;;;;;;13.95;100.00;98799.34;1700266;84;24452;-90
2022/09/21 11:11:47;;;;;;;;;;;;;;;13.95;100.00;98800.66;1731127;82;20164;-90
2022/09/21 11:14:15;;;;;;;;;;;;;;;13.94;100.00;98798.98;1700921;84;25752;-90
2022/09/21 11:16:48;;;;;;;;;;;;;;;13.75;100.00;98800.86;1702494;83;21975;-89
2022/09/21 11:19:16;;;;;;;;;;;;;;;13.69;100.00;98802.17;1699568;83;26034;-85
2022/09/21 11:21:54;;;;;;;;;;;;;;;13.62;100.00;98797.05;1711305;81;25404;-90
2022/09/21 11:24:48;;;;;;;;;;;;;;;13.64;100.00;98792.95;1706256;84;20256;-90
2022/09/21 11:30:17;;;;;;;;;;;;;;;13.54;100.00;98791.52;1691919;84;21940;-90
2022/09/21 11:33:01;;;;;;;;;;;;;;;13.59;100.00;98789.84;1705618;82;25935;-86
2022/09/21 11:35:32;;;;;;;;;;;;;;;13.57;100.00;98793.93;1683098;84;24391;-86
2022/09/21 11:41:09;;;;;;;;;;;;;;;13.66;100.00;98793.69;1681313;84;24983;-84
2022/09/21 11:43:43;;;;;;;;;;;;;;;13.67;100.00;98795.38;1688161;84;22903;-85
2022/09/21 11:46:14;;;;;;;;;;;;;;;13.73;100.00;98793.59;1687386;84;26021;-86
2022/09/21 11:51:48;;;;;;;;;;;;;;;13.74;100.00;98800.06;1707525;83;20543;-89
2022/09/21 11:54:38;;;;;;;;;;;;;;;13.68;100.00;98796.58;1704642;82;25744;-92
2022/09/21 11:57:10;;;;;;;;;;;;;;;13.66;100.00;98801.11;1693526;84;21983;-92
2022/09/21 11:59:38;;;;;;;;;;;;;;;13.64;100.00;98795.12;1686363;84;26702;-91
2022/09/21 12:02:06;;;;;;;;;;;;;;;13.68;100.00;98801.84;1686023;84;24443;-88
2022/09/21 12:04:38;;;;;;;;;;;;;;;13.79;100.00;98791.80;1683615;84;20418;-88
2022/09/21 12:07:11;;;;;;;;;;;;;;;13.88;100.00;98783.66;1686851;84;25046;-89
2022/09/21 12:09:54;;;;;;;;;;;;;;;13.93;100.00;98793.35;1679695;84;21577;-88
2022/09/21 12:12:22;;;;;;;;;;;;;;;13.96;100.00;98787.39;1700441;82;26600;-89
2022/09/21 12:14:58;;;;;;;;;;;;;;;13.97;100.00;98784.25;1705694;82;25277;-88
2022/09/21 12:17:42;;;;;;;;;;;;;;;14.02;100.00;98791.34;1698484;82;20212;-89
2022/09/21 12:20:27;;;;;;;;;;;;;;;14.04;100.00;98790.72;1708331;82;25744;-88
2022/09/21 12:22:55;;;;;;;;;;;;;;;14.06;100.00;98788.82;1703113;82;21942;-88
2022/09/21 12:25:23;;;;;;;;;;;;;;;14.01;100.00;98790.98;1709001;82;26701;-88
2022/09/21 12:27:51;;;;;;;;;;;;;;;13.79;100.00;98787.86;1701642;82;24448;-89
2022/09/21 12:30:19;;;;;;;;;;;;;;;13.59;100.00;98791.16;1708639;82;20369;-88
2022/09/21 12:32:52;;;;;;;;;;;;;;;13.63;100.00;98792.62;1696881;82;24997;-88
2022/09/21 12:35:25;;;;;;;;;;;;;;;13.60;100.00;98790.21;1711787;82;22173;-88
2022/09/21 12:37:58;;;;;;;;;;;;;;;13.61;100.00;98790.58;1691161;82;25943;-88
2022/09/21 12:40:32;;;;;;;;;;;;;;;13.75;100.00;98786.40;1705468;82;24416;-89
2022/09/21 12:43:13;;;;;;;;;;;;;;;13.97;100.00;98782.47;1711455;82;20288;-89
2022/09/21 12:45:40;;;;;;;;;;;;;;;14.08;100.00;98769.78;1716971;82;25108;-89
2022/09/21 12:48:09;;;;;;;;;;;;;;;14.20;100.00;98769.66;1702843;83;22182;-89
2022/09/21 12:50:37;;;;;;;;;;;;;;;14.32;100.00;98772.28;1708697;82;26084;-89
2022/09/21 12:53:03;;;;;;;;;;;;;;;14.32;100.00;98778.86;1710746;82;24498;-90
2022/09/21 12:55:30;;;;;;;;;;;;;;;14.28;100.00;98773.02;1704453;82;20263;-90
2022/09/21 12:58:07;;;;;;;;;;;;;;;14.26;100.00;98776.23;1709672;82;24950;-90
2022/09/21 13:00:41;;;;;;;;;;;;;;;14.36;100.00;98759.22;1705372;82;22271;-89
2022/09/21 13:03:12;;;;;;;;;;;;;;;14.38;100.00;98762.61;1690368;83;26021;-90